<?xml version="1.0" encoding="UTF-8" standalone="no" ?><gpx xmlns="http://www.topografix.com/GPX/1/1" xmlns:gpxx="http://www.garmin.com/xmlschemas/GpxExtensions/v3" xmlns:wptx1="http://www.garmin.com/xmlschemas/WaypointExtension/v1" xmlns:gpxtpx="http://www.garmin.com/xmlschemas/TrackPointExtension/v1" creator="GuideVTT.com" version="1.1" xmlns:xsi="http://www.w3.org/2001/XMLSchema-instance" xsi:schemaLocation="http://www.topografix.com/GPX/1/1 http://www.topografix.com/GPX/1/1/gpx.xsd http://www.garmin.com/xmlschemas/GpxExtensions/v3 http://www8.garmin.com/xmlschemas/GpxExtensionsv3.xsd http://www.garmin.com/xmlschemas/WaypointExtension/v1 http://www8.garmin.com/xmlschemas/WaypointExtensionv1.xsd http://www.garmin.com/xmlschemas/TrackPointExtension/v1 http://www.garmin.com/xmlschemas/TrackPointExtensionv1.xsd">
<metadata><link href="http://www.garmin.com"><text>Garmin International</text></link><time>2013-06-22T15:13:50Z</time></metadata>
<trk><name>marche2.gpx</name><extensions><gpxx:TrackExtension><gpxx:DisplayColor>Cyan</gpxx:DisplayColor></gpxx:TrackExtension></extensions><trkseg>
<trkpt lat="31.04596250" lon="-6.10406566"><ele></ele><time>2014-6-12T23:20:28Z</time></trkpt>
<trkpt lat="31.12226564" lon="-6.08965818"><ele></ele><time>2014-6-12T23:20:31Z</time></trkpt>
<trkpt lat="31.02995147" lon="-6.06562953"><ele></ele><time>2014-6-12T23:20:34Z</time></trkpt>
<trkpt lat="31.21511852" lon="-5.85317317"><ele></ele><time>2014-6-12T23:20:37Z</time></trkpt>
<trkpt lat="31.04107493" lon="-5.89785023"><ele></ele><time>2014-6-12T23:20:40Z</time></trkpt>
<trkpt lat="31.12100484" lon="-5.83782616"><ele></ele><time>2014-6-12T23:20:43Z</time></trkpt>
<trkpt lat="31.14763850" lon="-5.83634290"><ele></ele><time>2014-6-12T23:20:46Z</time></trkpt>
<trkpt lat="31.03246420" lon="-6.10884754"><ele></ele><time>2014-6-12T23:20:49Z</time></trkpt>
<trkpt lat="31.01528691" lon="-5.95961932"><ele></ele><time>2014-6-12T23:20:52Z</time></trkpt>
<trkpt lat="" lon=""><ele></ele><time>2014-6-12T23:20:55Z</time></trkpt>
<trkpt lat="31.12265985" lon="-6.08920572"><ele></ele><time>2014-6-12T23:20:58Z</time></trkpt>
<trkpt lat="31.12213581" lon="-6.08962205"><ele></ele><time>2014-6-12T23:21:1Z</time></trkpt>
<trkpt lat="31.12234133" lon="-6.08959406"><ele></ele><time>2014-6-12T23:21:4Z</time></trkpt>
<trkpt lat="31.12214947" lon="-6.08974057"><ele></ele><time>2014-6-12T23:21:7Z</time></trkpt>
<trkpt lat="31.12144774" lon="-6.09018272"><ele></ele><time>2014-6-12T23:21:10Z</time></trkpt>
<trkpt lat="31.12129435" lon="-6.09032513"><ele></ele><time>2014-6-12T23:21:13Z</time></trkpt>
<trkpt lat="31.12055833" lon="-6.09056661"><ele></ele><time>2014-6-12T23:21:16Z</time></trkpt>
<trkpt lat="31.12009984" lon="-6.09063610"><ele></ele><time>2014-6-12T23:21:19Z</time></trkpt>
<trkpt lat="31.11977806" lon="-6.09049830"><ele></ele><time>2014-6-12T23:21:22Z</time></trkpt>
<trkpt lat="31.11946810" lon="-6.09030258"><ele></ele><time>2014-6-12T23:21:25Z</time></trkpt>
<trkpt lat="31.11911656" lon="-6.09028741"><ele></ele><time>2014-6-12T23:21:28Z</time></trkpt>
<trkpt lat="31.11792801" lon="-6.09096064"><ele></ele><time>2014-6-12T23:21:31Z</time></trkpt>
<trkpt lat="31.11779993" lon="-6.09098520"><ele></ele><time>2014-6-12T23:21:34Z</time></trkpt>
<trkpt lat="31.11776037" lon="-6.09104069"><ele></ele><time>2014-6-12T23:21:37Z</time></trkpt>
<trkpt lat="31.11756206" lon="-6.09117622"><ele></ele><time>2014-6-12T23:21:40Z</time></trkpt>
<trkpt lat="31.11679276" lon="-6.09155140"><ele></ele><time>2014-6-12T23:21:43Z</time></trkpt>
<trkpt lat="31.11615499" lon="-6.09199815"><ele></ele><time>2014-6-12T23:21:46Z</time></trkpt>
<trkpt lat="31.11563799" lon="-6.09243485"><ele></ele><time>2014-6-12T23:21:49Z</time></trkpt>
<trkpt lat="31.11511613" lon="-6.09247760"><ele></ele><time>2014-6-12T23:21:52Z</time></trkpt>
<trkpt lat="31.11448456" lon="-6.09296819"><ele></ele><time>2014-6-12T23:21:55Z</time></trkpt>
<trkpt lat="31.11329114" lon="-6.09296031"><ele></ele><time>2014-6-12T23:21:58Z</time></trkpt>
<trkpt lat="31.11310632" lon="-6.09311144"><ele></ele><time>2014-6-12T23:22:1Z</time></trkpt>
<trkpt lat="31.11279787" lon="-6.09318621"><ele></ele><time>2014-6-12T23:22:4Z</time></trkpt>
<trkpt lat="31.11253560" lon="-6.09314262"><ele></ele><time>2014-6-12T23:22:7Z</time></trkpt>
<trkpt lat="31.11240199" lon="-6.09318520"><ele></ele><time>2014-6-12T23:22:10Z</time></trkpt>
<trkpt lat="31.11217618" lon="-6.09320574"><ele></ele><time>2014-6-12T23:22:13Z</time></trkpt>
<trkpt lat="31.11160529" lon="-6.09308872"><ele></ele><time>2014-6-12T23:22:16Z</time></trkpt>
<trkpt lat="31.11124495" lon="-6.09312477"><ele></ele><time>2014-6-12T23:22:19Z</time></trkpt>
<trkpt lat="31.11096952" lon="-6.09304681"><ele></ele><time>2014-6-12T23:22:22Z</time></trkpt>
<trkpt lat="31.11067314" lon="-6.09291706"><ele></ele><time>2014-6-12T23:22:25Z</time></trkpt>
<trkpt lat="31.11052168" lon="-6.09298076"><ele></ele><time>2014-6-12T23:22:28Z</time></trkpt>
<trkpt lat="31.11004709" lon="-6.09332467"><ele></ele><time>2014-6-12T23:22:31Z</time></trkpt>
<trkpt lat="31.10892626" lon="-6.09369029"><ele></ele><time>2014-6-12T23:22:34Z</time></trkpt>
<trkpt lat="31.10882048" lon="-6.09385827"><ele></ele><time>2014-6-12T23:22:37Z</time></trkpt>
<trkpt lat="31.10870674" lon="-6.09398114"><ele></ele><time>2014-6-12T23:22:40Z</time></trkpt>
<trkpt lat="31.10743353" lon="-6.09345468"><ele></ele><time>2014-6-12T23:22:43Z</time></trkpt>
<trkpt lat="31.10685023" lon="-6.09352752"><ele></ele><time>2014-6-12T23:22:46Z</time></trkpt>
<trkpt lat="31.10666374" lon="-6.09348670"><ele></ele><time>2014-6-12T23:22:49Z</time></trkpt>
<trkpt lat="31.10648235" lon="-6.09340740"><ele></ele><time>2014-6-12T23:22:52Z</time></trkpt>
<trkpt lat="31.10625328" lon="-6.09337295"><ele></ele><time>2014-6-12T23:22:55Z</time></trkpt>
<trkpt lat="31.10617105" lon="-6.09331478"><ele></ele><time>2014-6-12T23:22:58Z</time></trkpt>
<trkpt lat="31.10584265" lon="-6.09331135"><ele></ele><time>2014-6-12T23:23:1Z</time></trkpt>
<trkpt lat="31.10578724" lon="-6.09341780"><ele></ele><time>2014-6-12T23:23:4Z</time></trkpt>
<trkpt lat="31.10546990" lon="-6.09346968"><ele></ele><time>2014-6-12T23:23:7Z</time></trkpt>
<trkpt lat="31.10495768" lon="-6.09286769"><ele></ele><time>2014-6-12T23:23:10Z</time></trkpt>
<trkpt lat="31.10468075" lon="-6.09264909"><ele></ele><time>2014-6-12T23:23:13Z</time></trkpt>
<trkpt lat="31.10403299" lon="-6.09239093"><ele></ele><time>2014-6-12T23:23:16Z</time></trkpt>
<trkpt lat="31.10371515" lon="-6.09238012"><ele></ele><time>2014-6-12T23:23:19Z</time></trkpt>
<trkpt lat="31.10288811" lon="-6.09195113"><ele></ele><time>2014-6-12T23:23:22Z</time></trkpt>
<trkpt lat="31.10269675" lon="-6.09172759"><ele></ele><time>2014-6-12T23:23:25Z</time></trkpt>
<trkpt lat="31.10257907" lon="-6.09118964"><ele></ele><time>2014-6-12T23:23:28Z</time></trkpt>
<trkpt lat="31.10238008" lon="-6.09092460"><ele></ele><time>2014-6-12T23:23:31Z</time></trkpt>
<trkpt lat="31.10173342" lon="-6.09064414"><ele></ele><time>2014-6-12T23:23:34Z</time></trkpt>
<trkpt lat="31.10128842" lon="-6.09109232"><ele></ele><time>2014-6-12T23:23:37Z</time></trkpt>
<trkpt lat="31.10112791" lon="-6.09118838"><ele></ele><time>2014-6-12T23:23:40Z</time></trkpt>
<trkpt lat="31.10109581" lon="-6.09117698"><ele></ele><time>2014-6-12T23:23:43Z</time></trkpt>
<trkpt lat="31.10100327" lon="-6.09128251"><ele></ele><time>2014-6-12T23:23:46Z</time></trkpt>
<trkpt lat="31.10062801" lon="-6.09117304"><ele></ele><time>2014-6-12T23:23:49Z</time></trkpt>
<trkpt lat="31.10037262" lon="-6.09113398"><ele></ele><time>2014-6-12T23:23:52Z</time></trkpt>
<trkpt lat="31.10031587" lon="-6.09119182"><ele></ele><time>2014-6-12T23:23:55Z</time></trkpt>
<trkpt lat="31.10017237" lon="-6.09120992"><ele></ele><time>2014-6-12T23:23:58Z</time></trkpt>
<trkpt lat="31.10007481" lon="-6.09114563"><ele></ele><time>2014-6-12T23:24:1Z</time></trkpt>
<trkpt lat="31.10007548" lon="-6.09114563"><ele></ele><time>2014-6-12T23:24:4Z</time></trkpt>
<trkpt lat="31.10002460" lon="-6.09116206"><ele></ele><time>2014-6-12T23:24:7Z</time></trkpt>
<trkpt lat="31.09942915" lon="-6.09104446"><ele></ele><time>2014-6-12T23:24:10Z</time></trkpt>
<trkpt lat="31.09946343" lon="-6.09117044"><ele></ele><time>2014-6-12T23:24:13Z</time></trkpt>
<trkpt lat="31.09933091" lon="-6.09159105"><ele></ele><time>2014-6-12T23:24:16Z</time></trkpt>
<trkpt lat="31.09839507" lon="-6.09223042"><ele></ele><time>2014-6-12T23:24:19Z</time></trkpt>
<trkpt lat="31.09824470" lon="-6.09230024"><ele></ele><time>2014-6-12T23:24:22Z</time></trkpt>
<trkpt lat="31.09807698" lon="-6.09232044"><ele></ele><time>2014-6-12T23:24:25Z</time></trkpt>
<trkpt lat="31.09770181" lon="-6.09254935"><ele></ele><time>2014-6-12T23:24:28Z</time></trkpt>
<trkpt lat="31.09751363" lon="-6.09248179"><ele></ele><time>2014-6-12T23:24:31Z</time></trkpt>
<trkpt lat="31.09682187" lon="-6.09299870"><ele></ele><time>2014-6-12T23:24:34Z</time></trkpt>
<trkpt lat="31.09673353" lon="-6.09296786"><ele></ele><time>2014-6-12T23:24:37Z</time></trkpt>
<trkpt lat="31.09635031" lon="-6.09301731"><ele></ele><time>2014-6-12T23:24:40Z</time></trkpt>
<trkpt lat="31.09612500" lon="-6.09309518"><ele></ele><time>2014-6-12T23:24:43Z</time></trkpt>
<trkpt lat="31.09576190" lon="-6.09334756"><ele></ele><time>2014-6-12T23:24:46Z</time></trkpt>
<trkpt lat="31.09550650" lon="-6.09334772"><ele></ele><time>2014-6-12T23:24:49Z</time></trkpt>
<trkpt lat="31.09510099" lon="-6.09343733"><ele></ele><time>2014-6-12T23:24:52Z</time></trkpt>
<trkpt lat="31.09478055" lon="-6.09368417"><ele></ele><time>2014-6-12T23:24:55Z</time></trkpt>
<trkpt lat="31.09432600" lon="-6.09378903"><ele></ele><time>2014-6-12T23:24:58Z</time></trkpt>
<trkpt lat="31.09422055" lon="-6.09374067"><ele></ele><time>2014-6-12T23:25:1Z</time></trkpt>
<trkpt lat="31.09413061" lon="-6.09361695"><ele></ele><time>2014-6-12T23:25:4Z</time></trkpt>
<trkpt lat="31.09404587" lon="-6.09357990"><ele></ele><time>2014-6-12T23:25:7Z</time></trkpt>
<trkpt lat="31.09388955" lon="-6.09368870"><ele></ele><time>2014-6-12T23:25:10Z</time></trkpt>
<trkpt lat="31.09327784" lon="-6.09385483"><ele></ele><time>2014-6-12T23:25:13Z</time></trkpt>
<trkpt lat="31.09316929" lon="-6.09385399"><ele></ele><time>2014-6-12T23:25:16Z</time></trkpt>
<trkpt lat="31.09276445" lon="-6.09399363"><ele></ele><time>2014-6-12T23:25:19Z</time></trkpt>
<trkpt lat="31.09242657" lon="-6.09405164"><ele></ele><time>2014-6-12T23:25:22Z</time></trkpt>
<trkpt lat="31.09049790" lon="-6.09449655"><ele></ele><time>2014-6-12T23:25:25Z</time></trkpt>
<trkpt lat="31.09034518" lon="-6.09459898"><ele></ele><time>2014-6-12T23:25:28Z</time></trkpt>
<trkpt lat="31.09024627" lon="-6.09461943"><ele></ele><time>2014-6-12T23:25:31Z</time></trkpt>
<trkpt lat="31.09010160" lon="-6.09474029"><ele></ele><time>2014-6-12T23:25:34Z</time></trkpt>
<trkpt lat="31.08990404" lon="-6.09505780"><ele></ele><time>2014-6-12T23:25:37Z</time></trkpt>
<trkpt lat="31.08983338" lon="-6.09525218"><ele></ele><time>2014-6-12T23:25:40Z</time></trkpt>
<trkpt lat="31.08961679" lon="-6.09515436"><ele></ele><time>2014-6-12T23:25:43Z</time></trkpt>
<trkpt lat="31.08939274" lon="-6.09515050"><ele></ele><time>2014-6-12T23:25:46Z</time></trkpt>
<trkpt lat="31.08814836" lon="-6.09532150"><ele></ele><time>2014-6-12T23:25:49Z</time></trkpt>
<trkpt lat="31.08775483" lon="-6.09527623"><ele></ele><time>2014-6-12T23:25:52Z</time></trkpt>
<trkpt lat="31.08754009" lon="-6.09531714"><ele></ele><time>2014-6-12T23:25:55Z</time></trkpt>
<trkpt lat="31.08695403" lon="-6.09524011"><ele></ele><time>2014-6-12T23:25:58Z</time></trkpt>
<trkpt lat="31.08641717" lon="-6.09509594"><ele></ele><time>2014-6-12T23:26:1Z</time></trkpt>
<trkpt lat="31.08613939" lon="-6.09515545"><ele></ele><time>2014-6-12T23:26:4Z</time></trkpt>
<trkpt lat="31.08584854" lon="-6.09514782"><ele></ele><time>2014-6-12T23:26:7Z</time></trkpt>
<trkpt lat="31.08536867" lon="-6.09527011"><ele></ele><time>2014-6-12T23:26:10Z</time></trkpt>
<trkpt lat="31.08520263" lon="-6.09501396"><ele></ele><time>2014-6-12T23:26:13Z</time></trkpt>
<trkpt lat="31.08524286" lon="-6.09498203"><ele></ele><time>2014-6-12T23:26:16Z</time></trkpt>
<trkpt lat="31.08514203" lon="-6.09498647"><ele></ele><time>2014-6-12T23:26:19Z</time></trkpt>
<trkpt lat="31.08458648" lon="-6.09507641"><ele></ele><time>2014-6-12T23:26:22Z</time></trkpt>
<trkpt lat="31.08455521" lon="-6.09495353"><ele></ele><time>2014-6-12T23:26:25Z</time></trkpt>
<trkpt lat="31.08440534" lon="-6.09508890"><ele></ele><time>2014-6-12T23:26:28Z</time></trkpt>
<trkpt lat="31.08413980" lon="-6.09504665"><ele></ele><time>2014-6-12T23:26:31Z</time></trkpt>
<trkpt lat="31.08394610" lon="-6.09510943"><ele></ele><time>2014-6-12T23:26:34Z</time></trkpt>
<trkpt lat="31.08375139" lon="-6.09522368"><ele></ele><time>2014-6-12T23:26:37Z</time></trkpt>
<trkpt lat="31.08365709" lon="-6.09524128"><ele></ele><time>2014-6-12T23:26:40Z</time></trkpt>
<trkpt lat="31.08346565" lon="-6.09513148"><ele></ele><time>2014-6-12T23:26:43Z</time></trkpt>
<trkpt lat="31.08343053" lon="-6.09515905"><ele></ele><time>2014-6-12T23:26:46Z</time></trkpt>
<trkpt lat="31.08342893" lon="-6.09526609"><ele></ele><time>2014-6-12T23:26:49Z</time></trkpt>
<trkpt lat="31.08304764" lon="-6.09530188"><ele></ele><time>2014-6-12T23:26:52Z</time></trkpt>
<trkpt lat="31.08296114" lon="-6.09527607"><ele></ele><time>2014-6-12T23:26:55Z</time></trkpt>
<trkpt lat="31.08284220" lon="-6.09538260"><ele></ele><time>2014-6-12T23:26:58Z</time></trkpt>
<trkpt lat="31.08283080" lon="-6.09541319"><ele></ele><time>2014-6-12T23:27:1Z</time></trkpt>
<trkpt lat="31.08208230" lon="-6.09553088"><ele></ele><time>2014-6-12T23:27:4Z</time></trkpt>
<trkpt lat="31.08183964" lon="-6.09561679"><ele></ele><time>2014-6-12T23:27:7Z</time></trkpt>
<trkpt lat="31.08165985" lon="-6.09563758"><ele></ele><time>2014-6-12T23:27:10Z</time></trkpt>
<trkpt lat="31.08127965" lon="-6.09581351"><ele></ele><time>2014-6-12T23:27:13Z</time></trkpt>
<trkpt lat="31.08054179" lon="-6.09587747"><ele></ele><time>2014-6-12T23:27:16Z</time></trkpt>
<trkpt lat="31.08038949" lon="-6.09591502"><ele></ele><time>2014-6-12T23:27:19Z</time></trkpt>
<trkpt lat="31.07975833" lon="-6.09641944"><ele></ele><time>2014-6-12T23:27:22Z</time></trkpt>
<trkpt lat="31.07931660" lon="-6.09651533"><ele></ele><time>2014-6-12T23:27:25Z</time></trkpt>
<trkpt lat="31.07916439" lon="-6.09662161"><ele></ele><time>2014-6-12T23:27:28Z</time></trkpt>
<trkpt lat="31.07892098" lon="-6.09667911"><ele></ele><time>2014-6-12T23:27:31Z</time></trkpt>
<trkpt lat="31.07881495" lon="-6.09665757"><ele></ele><time>2014-6-12T23:27:34Z</time></trkpt>
<trkpt lat="31.07826711" lon="-6.09717616"><ele></ele><time>2014-6-12T23:27:37Z</time></trkpt>
<trkpt lat="31.07826283" lon="-6.09724858"><ele></ele><time>2014-6-12T23:27:40Z</time></trkpt>
<trkpt lat="31.07782982" lon="-6.09764881"><ele></ele><time>2014-6-12T23:27:43Z</time></trkpt>
<trkpt lat="31.07727075" lon="-6.09796599"><ele></ele><time>2014-6-12T23:27:46Z</time></trkpt>
<trkpt lat="31.07716916" lon="-6.09798141"><ele></ele><time>2014-6-12T23:27:49Z</time></trkpt>
<trkpt lat="31.07677932" lon="-6.09821895"><ele></ele><time>2014-6-12T23:27:52Z</time></trkpt>
<trkpt lat="31.07675778" lon="-6.09815139"><ele></ele><time>2014-6-12T23:27:55Z</time></trkpt>
<trkpt lat="31.07669156" lon="-6.09820453"><ele></ele><time>2014-6-12T23:27:58Z</time></trkpt>
<trkpt lat="31.07624296" lon="-6.09835206"><ele></ele><time>2014-6-12T23:28:1Z</time></trkpt>
<trkpt lat="31.07600290" lon="-6.09831702"><ele></ele><time>2014-6-12T23:28:4Z</time></trkpt>
<trkpt lat="31.07585915" lon="-6.09835004"><ele></ele><time>2014-6-12T23:28:7Z</time></trkpt>
<trkpt lat="31.07560300" lon="-6.09832834"><ele></ele><time>2014-6-12T23:28:10Z</time></trkpt>
<trkpt lat="31.07555447" lon="-6.09835977"><ele></ele><time>2014-6-12T23:28:13Z</time></trkpt>
<trkpt lat="31.07529572" lon="-6.09830210"><ele></ele><time>2014-6-12T23:28:16Z</time></trkpt>
<trkpt lat="31.07454445" lon="-6.09820747"><ele></ele><time>2014-6-12T23:28:19Z</time></trkpt>
<trkpt lat="31.07415142" lon="-6.09826094"><ele></ele><time>2014-6-12T23:28:22Z</time></trkpt>
<trkpt lat="31.07400583" lon="-6.09831417"><ele></ele><time>2014-6-12T23:28:25Z</time></trkpt>
<trkpt lat="31.07327820" lon="-6.09846119"><ele></ele><time>2014-6-12T23:28:28Z</time></trkpt>
<trkpt lat="31.07317971" lon="-6.09845758"><ele></ele><time>2014-6-12T23:28:31Z</time></trkpt>
<trkpt lat="31.07310000" lon="-6.09842062"><ele></ele><time>2014-6-12T23:28:34Z</time></trkpt>
<trkpt lat="31.07247756" lon="-6.09846907"><ele></ele><time>2014-6-12T23:28:37Z</time></trkpt>
<trkpt lat="31.07238485" lon="-6.09857476"><ele></ele><time>2014-6-12T23:28:40Z</time></trkpt>
<trkpt lat="31.07215368" lon="-6.09837611"><ele></ele><time>2014-6-12T23:28:43Z</time></trkpt>
<trkpt lat="31.07148615" lon="-6.09818174"><ele></ele><time>2014-6-12T23:28:46Z</time></trkpt>
<trkpt lat="31.07131046" lon="-6.09837335"><ele></ele><time>2014-6-12T23:28:49Z</time></trkpt>
<trkpt lat="31.07111542" lon="-6.09848591"><ele></ele><time>2014-6-12T23:28:52Z</time></trkpt>
<trkpt lat="31.07043698" lon="-6.09876503"><ele></ele><time>2014-6-12T23:28:55Z</time></trkpt>
<trkpt lat="31.07019877" lon="-6.09869412"><ele></ele><time>2014-6-12T23:28:58Z</time></trkpt>
<trkpt lat="31.06889321" lon="-6.09881918"><ele></ele><time>2014-6-12T23:29:1Z</time></trkpt>
<trkpt lat="31.06847126" lon="-6.09893527"><ele></ele><time>2014-6-12T23:29:4Z</time></trkpt>
<trkpt lat="31.06844192" lon="-6.09887886"><ele></ele><time>2014-6-12T23:29:7Z</time></trkpt>
<trkpt lat="31.06848593" lon="-6.09873787"><ele></ele><time>2014-6-12T23:29:10Z</time></trkpt>
<trkpt lat="31.06840890" lon="-6.09885346"><ele></ele><time>2014-6-12T23:29:13Z</time></trkpt>
<trkpt lat="31.06751187" lon="-6.09912998"><ele></ele><time>2014-6-12T23:29:16Z</time></trkpt>
<trkpt lat="31.06746669" lon="-6.09911598"><ele></ele><time>2014-6-12T23:29:19Z</time></trkpt>
<trkpt lat="31.06712546" lon="-6.09921673"><ele></ele><time>2014-6-12T23:29:22Z</time></trkpt>
<trkpt lat="31.06627143" lon="-6.09980933"><ele></ele><time>2014-6-12T23:29:25Z</time></trkpt>
<trkpt lat="31.06633396" lon="-6.09973515"><ele></ele><time>2014-6-12T23:29:28Z</time></trkpt>
<trkpt lat="31.06629532" lon="-6.09969484"><ele></ele><time>2014-6-12T23:29:31Z</time></trkpt>
<trkpt lat="31.06630286" lon="-6.09960255"><ele></ele><time>2014-6-12T23:29:34Z</time></trkpt>
<trkpt lat="31.06631116" lon="-6.09959224"><ele></ele><time>2014-6-12T23:29:37Z</time></trkpt>
<trkpt lat="31.06613925" lon="-6.09962443"><ele></ele><time>2014-6-12T23:29:40Z</time></trkpt>
<trkpt lat="31.06610463" lon="-6.09964656"><ele></ele><time>2014-6-12T23:29:43Z</time></trkpt>
<trkpt lat="31.06611595" lon="-6.09964103"><ele></ele><time>2014-6-12T23:29:46Z</time></trkpt>
<trkpt lat="31.06612558" lon="-6.09977128"><ele></ele><time>2014-6-12T23:29:49Z</time></trkpt>
<trkpt lat="31.06604302" lon="-6.09993858"><ele></ele><time>2014-6-12T23:29:52Z</time></trkpt>
<trkpt lat="31.06586231" lon="-6.09991344"><ele></ele><time>2014-6-12T23:29:55Z</time></trkpt>
<trkpt lat="31.06580699" lon="-6.09995669"><ele></ele><time>2014-6-12T23:29:58Z</time></trkpt>
<trkpt lat="31.06580288" lon="-6.09988016"><ele></ele><time>2014-6-12T23:30:1Z</time></trkpt>
<trkpt lat="31.06560322" lon="-6.09992802"><ele></ele><time>2014-6-12T23:30:4Z</time></trkpt>
<trkpt lat="31.06554757" lon="-6.09990153"><ele></ele><time>2014-6-12T23:30:7Z</time></trkpt>
<trkpt lat="31.06552787" lon="-6.10006515"><ele></ele><time>2014-6-12T23:30:10Z</time></trkpt>
<trkpt lat="31.06552728" lon="-6.10038861"><ele></ele><time>2014-6-12T23:30:13Z</time></trkpt>
<trkpt lat="31.06547498" lon="-6.10040604"><ele></ele><time>2014-6-12T23:30:16Z</time></trkpt>
<trkpt lat="31.06542352" lon="-6.10040780"><ele></ele><time>2014-6-12T23:30:19Z</time></trkpt>
<trkpt lat="31.06517726" lon="-6.10009155"><ele></ele><time>2014-6-12T23:30:22Z</time></trkpt>
<trkpt lat="31.06511297" lon="-6.10015282"><ele></ele><time>2014-6-12T23:30:25Z</time></trkpt>
<trkpt lat="31.06503560" lon="-6.10011561"><ele></ele><time>2014-6-12T23:30:28Z</time></trkpt>
<trkpt lat="31.06446044" lon="-6.10030261"><ele></ele><time>2014-6-12T23:30:31Z</time></trkpt>
<trkpt lat="31.06428425" lon="-6.10028953"><ele></ele><time>2014-6-12T23:30:34Z</time></trkpt>
<trkpt lat="31.06395467" lon="-6.10045306"><ele></ele><time>2014-6-12T23:30:37Z</time></trkpt>
<trkpt lat="31.06381738" lon="-6.10001653"><ele></ele><time>2014-6-12T23:30:40Z</time></trkpt>
<trkpt lat="31.06355787" lon="-6.10041065"><ele></ele><time>2014-6-12T23:30:43Z</time></trkpt>
<trkpt lat="31.06351965" lon="-6.10068533"><ele></ele><time>2014-6-12T23:30:46Z</time></trkpt>
<trkpt lat="31.06360347" lon="-6.10088398"><ele></ele><time>2014-6-12T23:30:49Z</time></trkpt>
<trkpt lat="31.06345863" lon="-6.10090979"><ele></ele><time>2014-6-12T23:30:52Z</time></trkpt>
<trkpt lat="31.06328420" lon="-6.10063361"><ele></ele><time>2014-6-12T23:30:55Z</time></trkpt>
<trkpt lat="31.06322444" lon="-6.10061307"><ele></ele><time>2014-6-12T23:30:58Z</time></trkpt>
<trkpt lat="31.06319913" lon="-6.10065892"><ele></ele><time>2014-6-12T23:31:1Z</time></trkpt>
<trkpt lat="31.06271365" lon="-6.10071978"><ele></ele><time>2014-6-12T23:31:4Z</time></trkpt>
<trkpt lat="31.06247971" lon="-6.10078767"><ele></ele><time>2014-6-12T23:31:7Z</time></trkpt>
<trkpt lat="31.06129250" lon="-6.10073511"><ele></ele><time>2014-6-12T23:31:10Z</time></trkpt>
<trkpt lat="31.05970295" lon="-6.10080326"><ele></ele><time>2014-6-12T23:31:13Z</time></trkpt>
<trkpt lat="31.05930330" lon="-6.10073344"><ele></ele><time>2014-6-12T23:31:16Z</time></trkpt>
<trkpt lat="31.05820418" lon="-6.10089689"><ele></ele><time>2014-6-12T23:31:19Z</time></trkpt>
<trkpt lat="31.05769473" lon="-6.10082463"><ele></ele><time>2014-6-12T23:31:22Z</time></trkpt>
<trkpt lat="31.05732425" lon="-6.10092371"><ele></ele><time>2014-6-12T23:31:25Z</time></trkpt>
<trkpt lat="31.05688244" lon="-6.10086068"><ele></ele><time>2014-6-12T23:31:28Z</time></trkpt>
<trkpt lat="31.05643024" lon="-6.10083763"><ele></ele><time>2014-6-12T23:31:31Z</time></trkpt>
<trkpt lat="31.05623921" lon="-6.10096679"><ele></ele><time>2014-6-12T23:31:34Z</time></trkpt>
<trkpt lat="31.05585868" lon="-6.10114281"><ele></ele><time>2014-6-12T23:31:37Z</time></trkpt>
<trkpt lat="31.05565726" lon="-6.10137164"><ele></ele><time>2014-6-12T23:31:40Z</time></trkpt>
<trkpt lat="31.05534595" lon="-6.10144280"><ele></ele><time>2014-6-12T23:31:43Z</time></trkpt>
<trkpt lat="31.05534788" lon="-6.10147825"><ele></ele><time>2014-6-12T23:31:46Z</time></trkpt>
<trkpt lat="31.05522341" lon="-6.10145202"><ele></ele><time>2014-6-12T23:31:49Z</time></trkpt>
<trkpt lat="31.05473709" lon="-6.10115723"><ele></ele><time>2014-6-12T23:31:52Z</time></trkpt>
<trkpt lat="31.05444415" lon="-6.10091977"><ele></ele><time>2014-6-12T23:31:55Z</time></trkpt>
<trkpt lat="31.05244565" lon="-6.10126820"><ele></ele><time>2014-6-12T23:31:58Z</time></trkpt>
<trkpt lat="31.05088896" lon="-6.10144615"><ele></ele><time>2014-6-12T23:32:1Z</time></trkpt>
<trkpt lat="31.05064102" lon="-6.10134901"><ele></ele><time>2014-6-12T23:32:4Z</time></trkpt>
<trkpt lat="31.04982806" lon="-6.10159376"><ele></ele><time>2014-6-12T23:32:7Z</time></trkpt>
<trkpt lat="31.04959069" lon="-6.10148261"><ele></ele><time>2014-6-12T23:32:10Z</time></trkpt>
<trkpt lat="31.04858905" lon="-6.10145495"><ele></ele><time>2014-6-12T23:32:13Z</time></trkpt>
<trkpt lat="31.04830725" lon="-6.10140265"><ele></ele><time>2014-6-12T23:32:16Z</time></trkpt>
<trkpt lat="31.04765824" lon="-6.10114030"><ele></ele><time>2014-6-12T23:32:19Z</time></trkpt>
<trkpt lat="31.04730503" lon="-6.10090988"><ele></ele><time>2014-6-12T23:32:22Z</time></trkpt>
<trkpt lat="31.04703530" lon="-6.10096386"><ele></ele><time>2014-6-12T23:32:25Z</time></trkpt>
<trkpt lat="31.04681276" lon="-6.10082237"><ele></ele><time>2014-6-12T23:32:28Z</time></trkpt>
<trkpt lat="31.04655434" lon="-6.10141790"><ele></ele><time>2014-6-12T23:32:31Z</time></trkpt>
<trkpt lat="31.04650481" lon="-6.10142243"><ele></ele><time>2014-6-12T23:32:34Z</time></trkpt>
<trkpt lat="31.04640657" lon="-6.10158412"><ele></ele><time>2014-6-12T23:32:37Z</time></trkpt>
<trkpt lat="31.04630037" lon="-6.10183113"><ele></ele><time>2014-6-12T23:32:40Z</time></trkpt>
<trkpt lat="31.04622317" lon="-6.10214093"><ele></ele><time>2014-6-12T23:32:43Z</time></trkpt>
<trkpt lat="31.04611245" lon="-6.10224327"><ele></ele><time>2014-6-12T23:32:46Z</time></trkpt>
<trkpt lat="31.04594079" lon="-6.10259389"><ele></ele><time>2014-6-12T23:32:49Z</time></trkpt>
<trkpt lat="31.04588580" lon="-6.10287929"><ele></ele><time>2014-6-12T23:32:52Z</time></trkpt>
<trkpt lat="31.04581799" lon="-6.10308423"><ele></ele><time>2014-6-12T23:32:55Z</time></trkpt>
<trkpt lat="31.04581908" lon="-6.10338799"><ele></ele><time>2014-6-12T23:32:58Z</time></trkpt>
<trkpt lat="31.04585060" lon="-6.10369066"><ele></ele><time>2014-6-12T23:33:1Z</time></trkpt>
<trkpt lat="31.04596979" lon="-6.10411487"><ele></ele><time>2014-6-12T23:33:4Z</time></trkpt>
<trkpt lat="31.04595068" lon="-6.10413574"><ele></ele><time>2014-6-12T23:33:7Z</time></trkpt>
<trkpt lat="31.04596300" lon="-6.10406390"><ele></ele><time>2014-6-12T23:33:10Z</time></trkpt>
<trkpt lat="31.04596015" lon="-6.10407731"><ele></ele><time>2014-6-12T23:33:13Z</time></trkpt>
<trkpt lat="31.04592746" lon="-6.10410548"><ele></ele><time>2014-6-12T23:33:16Z</time></trkpt>
<trkpt lat="31.04560258" lon="-6.10472473"><ele></ele><time>2014-6-12T23:33:19Z</time></trkpt>
<trkpt lat="31.04539689" lon="-6.10488039"><ele></ele><time>2014-6-12T23:33:22Z</time></trkpt>
<trkpt lat="31.04516278" lon="-6.10491869"><ele></ele><time>2014-6-12T23:33:25Z</time></trkpt>
<trkpt lat="31.04485760" lon="-6.10496521"><ele></ele><time>2014-6-12T23:33:28Z</time></trkpt>
<trkpt lat="31.04457462" lon="-6.10514433"><ele></ele><time>2014-6-12T23:33:31Z</time></trkpt>
<trkpt lat="31.04449474" lon="-6.10513092"><ele></ele><time>2014-6-12T23:33:34Z</time></trkpt>
<trkpt lat="31.04427489" lon="-6.10522572"><ele></ele><time>2014-6-12T23:33:37Z</time></trkpt>
<trkpt lat="31.04414145" lon="-6.10522907"><ele></ele><time>2014-6-12T23:33:40Z</time></trkpt>
<trkpt lat="31.04371715" lon="-6.10533846"><ele></ele><time>2014-6-12T23:33:43Z</time></trkpt>
<trkpt lat="31.04337224" lon="-6.10530895"><ele></ele><time>2014-6-12T23:33:46Z</time></trkpt>
<trkpt lat="31.04306764" lon="-6.10515908"><ele></ele><time>2014-6-12T23:33:49Z</time></trkpt>
<trkpt lat="31.04276874" lon="-6.10489740"><ele></ele><time>2014-6-12T23:33:52Z</time></trkpt>
<trkpt lat="31.04240840" lon="-6.10501106"><ele></ele><time>2014-6-12T23:33:55Z</time></trkpt>
<trkpt lat="31.04204094" lon="-6.10494493"><ele></ele><time>2014-6-12T23:33:58Z</time></trkpt>
<trkpt lat="31.04163316" lon="-6.10481367"><ele></ele><time>2014-6-12T23:34:1Z</time></trkpt>
<trkpt lat="31.04090368" lon="-6.10491274"><ele></ele><time>2014-6-12T23:34:4Z</time></trkpt>
<trkpt lat="31.04038090" lon="-6.10474762"><ele></ele><time>2014-6-12T23:34:7Z</time></trkpt>
<trkpt lat="31.03990615" lon="-6.10499094"><ele></ele><time>2014-6-12T23:34:10Z</time></trkpt>
<trkpt lat="31.03968018" lon="-6.10521876"><ele></ele><time>2014-6-12T23:34:13Z</time></trkpt>
<trkpt lat="31.03935630" lon="-6.10540174"><ele></ele><time>2014-6-12T23:34:16Z</time></trkpt>
<trkpt lat="31.03901692" lon="-6.10575437"><ele></ele><time>2014-6-12T23:34:19Z</time></trkpt>
<trkpt lat="31.03878734" lon="-6.10592050"><ele></ele><time>2014-6-12T23:34:22Z</time></trkpt>
<trkpt lat="31.03848207" lon="-6.10594673"><ele></ele><time>2014-6-12T23:34:25Z</time></trkpt>
<trkpt lat="31.03843136" lon="-6.10607020"><ele></ele><time>2014-6-12T23:34:28Z</time></trkpt>
<trkpt lat="31.03845650" lon="-6.10609358"><ele></ele><time>2014-6-12T23:34:31Z</time></trkpt>
<trkpt lat="31.03836707" lon="-6.10608696"><ele></ele><time>2014-6-12T23:34:34Z</time></trkpt>
<trkpt lat="31.03832600" lon="-6.10614119"><ele></ele><time>2014-6-12T23:34:37Z</time></trkpt>
<trkpt lat="31.03824637" lon="-6.10615402"><ele></ele><time>2014-6-12T23:34:40Z</time></trkpt>
<trkpt lat="31.03823338" lon="-6.10622442"><ele></ele><time>2014-6-12T23:34:43Z</time></trkpt>
<trkpt lat="31.03814998" lon="-6.10617958"><ele></ele><time>2014-6-12T23:34:46Z</time></trkpt>
<trkpt lat="31.03798117" lon="-6.10618897"><ele></ele><time>2014-6-12T23:34:49Z</time></trkpt>
<trkpt lat="31.03793766" lon="-6.10628670"><ele></ele><time>2014-6-12T23:34:52Z</time></trkpt>
<trkpt lat="31.03761781" lon="-6.10646381"><ele></ele><time>2014-6-12T23:34:55Z</time></trkpt>
<trkpt lat="31.03715370" lon="-6.10690679"><ele></ele><time>2014-6-12T23:34:58Z</time></trkpt>
<trkpt lat="31.03699931" lon="-6.10702054"><ele></ele><time>2014-6-12T23:35:1Z</time></trkpt>
<trkpt lat="31.03649489" lon="-6.10763870"><ele></ele><time>2014-6-12T23:35:4Z</time></trkpt>
<trkpt lat="31.03588594" lon="-6.10774850"><ele></ele><time>2014-6-12T23:35:7Z</time></trkpt>
<trkpt lat="31.03554606" lon="-6.10778052"><ele></ele><time>2014-6-12T23:35:10Z</time></trkpt>
<trkpt lat="31.03538487" lon="-6.10789980"><ele></ele><time>2014-6-12T23:35:13Z</time></trkpt>
<trkpt lat="31.03526442" lon="-6.10789904"><ele></ele><time>2014-6-12T23:35:16Z</time></trkpt>
<trkpt lat="31.03512813" lon="-6.10779142"><ele></ele><time>2014-6-12T23:35:19Z</time></trkpt>
<trkpt lat="31.03435750" lon="-6.10796920"><ele></ele><time>2014-6-12T23:35:22Z</time></trkpt>
<trkpt lat="31.03357882" lon="-6.10813340"><ele></ele><time>2014-6-12T23:35:25Z</time></trkpt>
<trkpt lat="31.03335712" lon="-6.10812536"><ele></ele><time>2014-6-12T23:35:28Z</time></trkpt>
<trkpt lat="31.03323005" lon="-6.10821043"><ele></ele><time>2014-6-12T23:35:31Z</time></trkpt>
<trkpt lat="31.03317155" lon="-6.10833557"><ele></ele><time>2014-6-12T23:35:34Z</time></trkpt>
<trkpt lat="31.03308639" lon="-6.10827992"><ele></ele><time>2014-6-12T23:35:37Z</time></trkpt>
<trkpt lat="31.03297030" lon="-6.10829945"><ele></ele><time>2014-6-12T23:35:40Z</time></trkpt>
<trkpt lat="31.03299351" lon="-6.10831420"><ele></ele><time>2014-6-12T23:35:43Z</time></trkpt>
<trkpt lat="31.03282412" lon="-6.10844496"><ele></ele><time>2014-6-12T23:35:46Z</time></trkpt>
<trkpt lat="31.03249865" lon="-6.10859483"><ele></ele><time>2014-6-12T23:35:49Z</time></trkpt>
<trkpt lat="31.03239597" lon="-6.10887252"><ele></ele><time>2014-6-12T23:35:52Z</time></trkpt>
<trkpt lat="31.03246369" lon="-6.10882633"><ele></ele><time>2014-6-12T23:35:55Z</time></trkpt>
<trkpt lat="31.03243930" lon="-6.10885240"><ele></ele><time>2014-6-12T23:35:58Z</time></trkpt>
<trkpt lat="31.03246897" lon="-6.10884712"><ele></ele><time>2014-6-12T23:36:1Z</time></trkpt>
<trkpt lat="31.03238138" lon="-6.10880538"><ele></ele><time>2014-6-12T23:36:4Z</time></trkpt>
<trkpt lat="31.03244634" lon="-6.10886204"><ele></ele><time>2014-6-12T23:36:7Z</time></trkpt>
<trkpt lat="31.03244601" lon="-6.10886070"><ele></ele><time>2014-6-12T23:36:10Z</time></trkpt>
<trkpt lat="31.03245129" lon="-6.10886171"><ele></ele><time>2014-6-12T23:36:13Z</time></trkpt>
<trkpt lat="31.03244953" lon="-6.10886615"><ele></ele><time>2014-6-12T23:36:16Z</time></trkpt>
<trkpt lat="31.03266612" lon="-6.10876892"><ele></ele><time>2014-6-12T23:36:19Z</time></trkpt>
<trkpt lat="31.03270501" lon="-6.10874645"><ele></ele><time>2014-6-12T23:36:22Z</time></trkpt>
<trkpt lat="31.03270425" lon="-6.10882843"><ele></ele><time>2014-6-12T23:36:25Z</time></trkpt>
<trkpt lat="31.03265774" lon="-6.10893882"><ele></ele><time>2014-6-12T23:36:28Z</time></trkpt>
<trkpt lat="31.03257098" lon="-6.10901250"><ele></ele><time>2014-6-12T23:36:31Z</time></trkpt>
<trkpt lat="31.03247962" lon="-6.10903094"><ele></ele><time>2014-6-12T23:36:34Z</time></trkpt>
<trkpt lat="31.03242908" lon="-6.10899137"><ele></ele><time>2014-6-12T23:36:37Z</time></trkpt>
<trkpt lat="31.03245414" lon="-6.10885810"><ele></ele><time>2014-6-12T23:36:40Z</time></trkpt>
<trkpt lat="31.03244215" lon="-6.10883455"><ele></ele><time>2014-6-12T23:36:43Z</time></trkpt>
<trkpt lat="31.03215826" lon="-6.10937325"><ele></ele><time>2014-6-12T23:36:46Z</time></trkpt>
<trkpt lat="31.03205700" lon="-6.10965162"><ele></ele><time>2014-6-12T23:36:49Z</time></trkpt>
<trkpt lat="31.03205357" lon="-6.10974424"><ele></ele><time>2014-6-12T23:36:52Z</time></trkpt>
<trkpt lat="31.03179415" lon="-6.10998211"><ele></ele><time>2014-6-12T23:36:55Z</time></trkpt>
<trkpt lat="31.03174562" lon="-6.11005638"><ele></ele><time>2014-6-12T23:36:58Z</time></trkpt>
<trkpt lat="31.03122133" lon="-6.11041227"><ele></ele><time>2014-6-12T23:37:1Z</time></trkpt>
<trkpt lat="31.03101036" lon="-6.11024145"><ele></ele><time>2014-6-12T23:37:4Z</time></trkpt>
<trkpt lat="31.03084180" lon="-6.11019719"><ele></ele><time>2014-6-12T23:37:7Z</time></trkpt>
<trkpt lat="31.03028138" lon="-6.11023449"><ele></ele><time>2014-6-12T23:37:10Z</time></trkpt>
<trkpt lat="31.02966632" lon="-6.11010692"><ele></ele><time>2014-6-12T23:37:13Z</time></trkpt>
<trkpt lat="31.02954620" lon="-6.11017079"><ele></ele><time>2014-6-12T23:37:16Z</time></trkpt>
<trkpt lat="31.02941159" lon="-6.11013114"><ele></ele><time>2014-6-12T23:37:19Z</time></trkpt>
<trkpt lat="31.02907665" lon="-6.10969730"><ele></ele><time>2014-6-12T23:37:22Z</time></trkpt>
<trkpt lat="31.02904866" lon="-6.10946705"><ele></ele><time>2014-6-12T23:37:25Z</time></trkpt>
<trkpt lat="31.02914773" lon="-6.10943486"><ele></ele><time>2014-6-12T23:37:28Z</time></trkpt>
<trkpt lat="31.02889510" lon="-6.10927426"><ele></ele><time>2014-6-12T23:37:31Z</time></trkpt>
<trkpt lat="31.02831130" lon="-6.10915340"><ele></ele><time>2014-6-12T23:37:34Z</time></trkpt>
<trkpt lat="31.02826403" lon="-6.10912473"><ele></ele><time>2014-6-12T23:37:37Z</time></trkpt>
<trkpt lat="31.02832354" lon="-6.10900763"><ele></ele><time>2014-6-12T23:37:40Z</time></trkpt>
<trkpt lat="31.02827978" lon="-6.10894443"><ele></ele><time>2014-6-12T23:37:43Z</time></trkpt>
<trkpt lat="31.02810343" lon="-6.10885869"><ele></ele><time>2014-6-12T23:37:46Z</time></trkpt>
<trkpt lat="31.02761376" lon="-6.10943084"><ele></ele><time>2014-6-12T23:37:49Z</time></trkpt>
<trkpt lat="31.02734688" lon="-6.10966536"><ele></ele><time>2014-6-12T23:37:52Z</time></trkpt>
<trkpt lat="31.02739474" lon="-6.10951046"><ele></ele><time>2014-6-12T23:37:55Z</time></trkpt>
<trkpt lat="31.02750965" lon="-6.10925540"><ele></ele><time>2014-6-12T23:37:58Z</time></trkpt>
<trkpt lat="31.02705083" lon="-6.10955363"><ele></ele><time>2014-6-12T23:38:1Z</time></trkpt>
<trkpt lat="31.02689710" lon="-6.10963519"><ele></ele><time>2014-6-12T23:38:4Z</time></trkpt>
<trkpt lat="31.02680038" lon="-6.10972957"><ele></ele><time>2014-6-12T23:38:7Z</time></trkpt>
<trkpt lat="31.02677012" lon="-6.10979578"><ele></ele><time>2014-6-12T23:38:10Z</time></trkpt>
<trkpt lat="31.02656912" lon="-6.10992218"><ele></ele><time>2014-6-12T23:38:13Z</time></trkpt>
<trkpt lat="31.02639369" lon="-6.11022192"><ele></ele><time>2014-6-12T23:38:16Z</time></trkpt>
<trkpt lat="31.02635924" lon="-6.11028009"><ele></ele><time>2014-6-12T23:38:19Z</time></trkpt>
<trkpt lat="31.02600778" lon="-6.11048075"><ele></ele><time>2014-6-12T23:38:22Z</time></trkpt>
<trkpt lat="31.02594274" lon="-6.11047304"><ele></ele><time>2014-6-12T23:38:25Z</time></trkpt>
<trkpt lat="31.02559607" lon="-6.11037020"><ele></ele><time>2014-6-12T23:38:28Z</time></trkpt>
<trkpt lat="31.02531930" lon="-6.11045687"><ele></ele><time>2014-6-12T23:38:31Z</time></trkpt>
<trkpt lat="31.02523766" lon="-6.11038185"><ele></ele><time>2014-6-12T23:38:34Z</time></trkpt>
<trkpt lat="31.02522299" lon="-6.11039517"><ele></ele><time>2014-6-12T23:38:37Z</time></trkpt>
<trkpt lat="31.02495963" lon="-6.11030985"><ele></ele><time>2014-6-12T23:38:40Z</time></trkpt>
<trkpt lat="31.02480196" lon="-6.11040976"><ele></ele><time>2014-6-12T23:38:43Z</time></trkpt>
<trkpt lat="31.02484538" lon="-6.11039341"><ele></ele><time>2014-6-12T23:38:46Z</time></trkpt>
<trkpt lat="31.02474614" lon="-6.11043105"><ele></ele><time>2014-6-12T23:38:49Z</time></trkpt>
<trkpt lat="31.02462418" lon="-6.11037254"><ele></ele><time>2014-6-12T23:38:52Z</time></trkpt>
<trkpt lat="31.02447256" lon="-6.11031655"><ele></ele><time>2014-6-12T23:38:55Z</time></trkpt>
<trkpt lat="31.02427399" lon="-6.11015009"><ele></ele><time>2014-6-12T23:38:58Z</time></trkpt>
<trkpt lat="31.02419788" lon="-6.10991397"><ele></ele><time>2014-6-12T23:39:1Z</time></trkpt>
<trkpt lat="31.02397182" lon="-6.11000567"><ele></ele><time>2014-6-12T23:39:4Z</time></trkpt>
<trkpt lat="31.02394349" lon="-6.11008446"><ele></ele><time>2014-6-12T23:39:7Z</time></trkpt>
<trkpt lat="31.02378021" lon="-6.11010265"><ele></ele><time>2014-6-12T23:39:10Z</time></trkpt>
<trkpt lat="31.02371869" lon="-6.11008697"><ele></ele><time>2014-6-12T23:39:13Z</time></trkpt>
<trkpt lat="31.02360972" lon="-6.11016417"><ele></ele><time>2014-6-12T23:39:16Z</time></trkpt>
<trkpt lat="31.02348676" lon="-6.11018403"><ele></ele><time>2014-6-12T23:39:19Z</time></trkpt>
<trkpt lat="31.02342063" lon="-6.11032527"><ele></ele><time>2014-6-12T23:39:22Z</time></trkpt>
<trkpt lat="31.02329465" lon="-6.11038998"><ele></ele><time>2014-6-12T23:39:25Z</time></trkpt>
<trkpt lat="31.02300539" lon="-6.11031957"><ele></ele><time>2014-6-12T23:39:28Z</time></trkpt>
<trkpt lat="31.02296566" lon="-6.11026207"><ele></ele><time>2014-6-12T23:39:31Z</time></trkpt>
<trkpt lat="31.02298150" lon="-6.10980408"><ele></ele><time>2014-6-12T23:39:34Z</time></trkpt>
<trkpt lat="31.02280489" lon="-6.10981775"><ele></ele><time>2014-6-12T23:39:37Z</time></trkpt>
<trkpt lat="31.02260096" lon="-6.10992311"><ele></ele><time>2014-6-12T23:39:40Z</time></trkpt>
<trkpt lat="31.02211674" lon="-6.11036818"><ele></ele><time>2014-6-12T23:39:43Z</time></trkpt>
<trkpt lat="31.02157116" lon="-6.11061570"><ele></ele><time>2014-6-12T23:39:46Z</time></trkpt>
<trkpt lat="31.02106523" lon="-6.11063431"><ele></ele><time>2014-6-12T23:39:49Z</time></trkpt>
<trkpt lat="31.02105400" lon="-6.11063708"><ele></ele><time>2014-6-12T23:39:52Z</time></trkpt>
<trkpt lat="31.02086331" lon="-6.11067773"><ele></ele><time>2014-6-12T23:39:55Z</time></trkpt>
<trkpt lat="31.02042468" lon="-6.11098442"><ele></ele><time>2014-6-12T23:39:58Z</time></trkpt>
<trkpt lat="31.01959806" lon="-6.11113362"><ele></ele><time>2014-6-12T23:40:1Z</time></trkpt>
<trkpt lat="31.01948658" lon="-6.11104259"><ele></ele><time>2014-6-12T23:40:4Z</time></trkpt>
<trkpt lat="31.01897621" lon="-6.11100554"><ele></ele><time>2014-6-12T23:40:7Z</time></trkpt>
<trkpt lat="31.01879071" lon="-6.11091577"><ele></ele><time>2014-6-12T23:40:10Z</time></trkpt>
<trkpt lat="31.01883589" lon="-6.11094243"><ele></ele><time>2014-6-12T23:40:13Z</time></trkpt>
<trkpt lat="31.01869784" lon="-6.11099037"><ele></ele><time>2014-6-12T23:40:16Z</time></trkpt>
<trkpt lat="31.01843490" lon="-6.11102558"><ele></ele><time>2014-6-12T23:40:19Z</time></trkpt>
<trkpt lat="31.01840800" lon="-6.11103815"><ele></ele><time>2014-6-12T23:40:22Z</time></trkpt>
<trkpt lat="31.01827187" lon="-6.11102139"><ele></ele><time>2014-6-12T23:40:25Z</time></trkpt>
<trkpt lat="31.01821136" lon="-6.11100295"><ele></ele><time>2014-6-12T23:40:28Z</time></trkpt>
<trkpt lat="31.01807825" lon="-6.11086322"><ele></ele><time>2014-6-12T23:40:31Z</time></trkpt>
<trkpt lat="31.01792838" lon="-6.11080513"><ele></ele><time>2014-6-12T23:40:34Z</time></trkpt>
<trkpt lat="31.01719933" lon="-6.11088074"><ele></ele><time>2014-6-12T23:40:37Z</time></trkpt>
<trkpt lat="31.01699213" lon="-6.11087118"><ele></ele><time>2014-6-12T23:40:40Z</time></trkpt>
<trkpt lat="31.01687704" lon="-6.11054764"><ele></ele><time>2014-6-12T23:40:43Z</time></trkpt>
<trkpt lat="31.01641101" lon="-6.11028395"><ele></ele><time>2014-6-12T23:40:46Z</time></trkpt>
<trkpt lat="31.01568203" lon="-6.10928541"><ele></ele><time>2014-6-12T23:40:49Z</time></trkpt>
<trkpt lat="31.01517342" lon="-6.10861234"><ele></ele><time>2014-6-12T23:40:52Z</time></trkpt>
<trkpt lat="31.01496723" lon="-6.10803307"><ele></ele><time>2014-6-12T23:40:55Z</time></trkpt>
<trkpt lat="31.01474443" lon="-6.10755798"><ele></ele><time>2014-6-12T23:40:58Z</time></trkpt>
<trkpt lat="31.01441176" lon="-6.10729052"><ele></ele><time>2014-6-12T23:41:1Z</time></trkpt>
<trkpt lat="31.01433783" lon="-6.10713101"><ele></ele><time>2014-6-12T23:41:4Z</time></trkpt>
<trkpt lat="31.01422970" lon="-6.10672985"><ele></ele><time>2014-6-12T23:41:7Z</time></trkpt>
<trkpt lat="31.01411277" lon="-6.10566007"><ele></ele><time>2014-6-12T23:41:10Z</time></trkpt>
<trkpt lat="31.01428343" lon="-6.10454050"><ele></ele><time>2014-6-12T23:41:13Z</time></trkpt>
<trkpt lat="31.01422417" lon="-6.10426767"><ele></ele><time>2014-6-12T23:41:16Z</time></trkpt>
<trkpt lat="31.01426147" lon="-6.10351439"><ele></ele><time>2014-6-12T23:41:19Z</time></trkpt>
<trkpt lat="31.01423691" lon="-6.10308808"><ele></ele><time>2014-6-12T23:41:22Z</time></trkpt>
<trkpt lat="31.01427253" lon="-6.10276094"><ele></ele><time>2014-6-12T23:41:25Z</time></trkpt>
<trkpt lat="31.01428100" lon="-6.10170197"><ele></ele><time>2014-6-12T23:41:28Z</time></trkpt>
<trkpt lat="31.01434973" lon="-6.10152938"><ele></ele><time>2014-6-12T23:41:31Z</time></trkpt>
<trkpt lat="31.01467528" lon="-6.10087845"><ele></ele><time>2014-6-12T23:41:34Z</time></trkpt>
<trkpt lat="31.01471116" lon="-6.10084098"><ele></ele><time>2014-6-12T23:41:37Z</time></trkpt>
<trkpt lat="31.01522874" lon="-6.09930315"><ele></ele><time>2014-6-12T23:41:40Z</time></trkpt>
<trkpt lat="31.01539177" lon="-6.09867409"><ele></ele><time>2014-6-12T23:41:43Z</time></trkpt>
<trkpt lat="31.01563225" lon="-6.09816187"><ele></ele><time>2014-6-12T23:41:46Z</time></trkpt>
<trkpt lat="31.01584406" lon="-6.09791544"><ele></ele><time>2014-6-12T23:41:49Z</time></trkpt>
<trkpt lat="31.01578924" lon="-6.09772467"><ele></ele><time>2014-6-12T23:41:52Z</time></trkpt>
<trkpt lat="31.01589276" lon="-6.09750842"><ele></ele><time>2014-6-12T23:41:55Z</time></trkpt>
<trkpt lat="31.01603969" lon="-6.09743952"><ele></ele><time>2014-6-12T23:41:58Z</time></trkpt>
<trkpt lat="31.01615796" lon="-6.09727900"><ele></ele><time>2014-6-12T23:42:1Z</time></trkpt>
<trkpt lat="31.01626885" lon="-6.09710977"><ele></ele><time>2014-6-12T23:42:4Z</time></trkpt>
<trkpt lat="31.01632585" lon="-6.09701623"><ele></ele><time>2014-6-12T23:42:7Z</time></trkpt>
<trkpt lat="31.01666858" lon="-6.09641558"><ele></ele><time>2014-6-12T23:42:10Z</time></trkpt>
<trkpt lat="31.01740276" lon="-6.09573883"><ele></ele><time>2014-6-12T23:42:13Z</time></trkpt>
<trkpt lat="31.01750401" lon="-6.09558192"><ele></ele><time>2014-6-12T23:42:16Z</time></trkpt>
<trkpt lat="31.01765287" lon="-6.09546541"><ele></ele><time>2014-6-12T23:42:19Z</time></trkpt>
<trkpt lat="31.01774759" lon="-6.09544530"><ele></ele><time>2014-6-12T23:42:22Z</time></trkpt>
<trkpt lat="31.01771515" lon="-6.09548947"><ele></ele><time>2014-6-12T23:42:25Z</time></trkpt>
<trkpt lat="31.01779914" lon="-6.09540087"><ele></ele><time>2014-6-12T23:42:28Z</time></trkpt>
<trkpt lat="31.01780249" lon="-6.09538034"><ele></ele><time>2014-6-12T23:42:31Z</time></trkpt>
<trkpt lat="31.01777382" lon="-6.09543256"><ele></ele><time>2014-6-12T23:42:34Z</time></trkpt>
<trkpt lat="31.01776410" lon="-6.09542719"><ele></ele><time>2014-6-12T23:42:37Z</time></trkpt>
<trkpt lat="31.01773778" lon="-6.09543574"><ele></ele><time>2014-6-12T23:42:40Z</time></trkpt>
<trkpt lat="31.01767902" lon="-6.09538855"><ele></ele><time>2014-6-12T23:42:43Z</time></trkpt>
<trkpt lat="31.01778707" lon="-6.09516408"><ele></ele><time>2014-6-12T23:42:46Z</time></trkpt>
<trkpt lat="31.01922800" lon="-6.09362944"><ele></ele><time>2014-6-12T23:42:49Z</time></trkpt>
<trkpt lat="31.01962346" lon="-6.09304723"><ele></ele><time>2014-6-12T23:42:52Z</time></trkpt>
<trkpt lat="31.02025973" lon="-6.09206135"><ele></ele><time>2014-6-12T23:42:55Z</time></trkpt>
<trkpt lat="31.02058562" lon="-6.09168157"><ele></ele><time>2014-6-12T23:42:58Z</time></trkpt>
<trkpt lat="31.02245176" lon="-6.08822378"><ele></ele><time>2014-6-12T23:43:1Z</time></trkpt>
<trkpt lat="31.02373201" lon="-6.08617801"><ele></ele><time>2014-6-12T23:43:4Z</time></trkpt>
<trkpt lat="31.02415077" lon="-6.08568775"><ele></ele><time>2014-6-12T23:43:7Z</time></trkpt>
<trkpt lat="31.02458789" lon="-6.08389151"><ele></ele><time>2014-6-12T23:43:10Z</time></trkpt>
<trkpt lat="31.02449896" lon="-6.08363670"><ele></ele><time>2014-6-12T23:43:13Z</time></trkpt>
<trkpt lat="31.02417726" lon="-6.08349564"><ele></ele><time>2014-6-12T23:43:16Z</time></trkpt>
<trkpt lat="31.02421364" lon="-6.08314485"><ele></ele><time>2014-6-12T23:43:19Z</time></trkpt>
<trkpt lat="31.02448228" lon="-6.08213190"><ele></ele><time>2014-6-12T23:43:22Z</time></trkpt>
<trkpt lat="31.02495871" lon="-6.08136320"><ele></ele><time>2014-6-12T23:43:25Z</time></trkpt>
<trkpt lat="31.02498368" lon="-6.08133528"><ele></ele><time>2014-6-12T23:43:28Z</time></trkpt>
<trkpt lat="31.02530664" lon="-6.07964683"><ele></ele><time>2014-6-12T23:43:31Z</time></trkpt>
<trkpt lat="31.02526699" lon="-6.07957131"><ele></ele><time>2014-6-12T23:43:34Z</time></trkpt>
<trkpt lat="31.02528619" lon="-6.07960803"><ele></ele><time>2014-6-12T23:43:37Z</time></trkpt>
<trkpt lat="31.02523556" lon="-6.07962529"><ele></ele><time>2014-6-12T23:43:40Z</time></trkpt>
<trkpt lat="31.02532231" lon="-6.07956503"><ele></ele><time>2014-6-12T23:43:43Z</time></trkpt>
<trkpt lat="31.02543748" lon="-6.07911232"><ele></ele><time>2014-6-12T23:43:46Z</time></trkpt>
<trkpt lat="31.02543421" lon="-6.07888525"><ele></ele><time>2014-6-12T23:43:49Z</time></trkpt>
<trkpt lat="31.02552876" lon="-6.07862399"><ele></ele><time>2014-6-12T23:43:52Z</time></trkpt>
<trkpt lat="31.02571450" lon="-6.07828695"><ele></ele><time>2014-6-12T23:43:55Z</time></trkpt>
<trkpt lat="31.02581098" lon="-6.07787197"><ele></ele><time>2014-6-12T23:43:58Z</time></trkpt>
<trkpt lat="31.02579832" lon="-6.07773165"><ele></ele><time>2014-6-12T23:44:1Z</time></trkpt>
<trkpt lat="31.02592355" lon="-6.07736863"><ele></ele><time>2014-6-12T23:44:4Z</time></trkpt>
<trkpt lat="31.02651933" lon="-6.07582611"><ele></ele><time>2014-6-12T23:44:7Z</time></trkpt>
<trkpt lat="31.02665269" lon="-6.07571891"><ele></ele><time>2014-6-12T23:44:10Z</time></trkpt>
<trkpt lat="31.02670390" lon="-6.07556342"><ele></ele><time>2014-6-12T23:44:13Z</time></trkpt>
<trkpt lat="31.02679225" lon="-6.07506973"><ele></ele><time>2014-6-12T23:44:16Z</time></trkpt>
<trkpt lat="31.02679283" lon="-6.07476471"><ele></ele><time>2014-6-12T23:44:19Z</time></trkpt>
<trkpt lat="31.02690943" lon="-6.07427211"><ele></ele><time>2014-6-12T23:44:22Z</time></trkpt>
<trkpt lat="31.02716390" lon="-6.07375544"><ele></ele><time>2014-6-12T23:44:25Z</time></trkpt>
<trkpt lat="31.02733942" lon="-6.07334004"><ele></ele><time>2014-6-12T23:44:28Z</time></trkpt>
<trkpt lat="31.02757026" lon="-6.07306603"><ele></ele><time>2014-6-12T23:44:31Z</time></trkpt>
<trkpt lat="31.02767017" lon="-6.07300728"><ele></ele><time>2014-6-12T23:44:34Z</time></trkpt>
<trkpt lat="31.02775969" lon="-6.07287191"><ele></ele><time>2014-6-12T23:44:37Z</time></trkpt>
<trkpt lat="31.02776639" lon="-6.07267804"><ele></ele><time>2014-6-12T23:44:40Z</time></trkpt>
<trkpt lat="31.02795281" lon="-6.07246555"><ele></ele><time>2014-6-12T23:44:43Z</time></trkpt>
<trkpt lat="31.02818674" lon="-6.07239498"><ele></ele><time>2014-6-12T23:44:46Z</time></trkpt>
<trkpt lat="31.02842202" lon="-6.07210035"><ele></ele><time>2014-6-12T23:44:49Z</time></trkpt>
<trkpt lat="31.02848782" lon="-6.07189726"><ele></ele><time>2014-6-12T23:44:52Z</time></trkpt>
<trkpt lat="31.02864222" lon="-6.07160071"><ele></ele><time>2014-6-12T23:44:55Z</time></trkpt>
<trkpt lat="31.02872235" lon="-6.07149602"><ele></ele><time>2014-6-12T23:44:58Z</time></trkpt>
<trkpt lat="31.02877717" lon="-6.07129209"><ele></ele><time>2014-6-12T23:45:1Z</time></trkpt>
<trkpt lat="31.02915217" lon="-6.07071022"><ele></ele><time>2014-6-12T23:45:4Z</time></trkpt>
<trkpt lat="31.02935309" lon="-6.07061852"><ele></ele><time>2014-6-12T23:45:7Z</time></trkpt>
<trkpt lat="31.02947379" lon="-6.07049136"><ele></ele><time>2014-6-12T23:45:10Z</time></trkpt>
<trkpt lat="31.02963447" lon="-6.07011938"><ele></ele><time>2014-6-12T23:45:13Z</time></trkpt>
<trkpt lat="31.02967529" lon="-6.06997378"><ele></ele><time>2014-6-12T23:45:16Z</time></trkpt>
<trkpt lat="31.02964478" lon="-6.06990857"><ele></ele><time>2014-6-12T23:45:19Z</time></trkpt>
<trkpt lat="31.02989129" lon="-6.06901355"><ele></ele><time>2014-6-12T23:45:22Z</time></trkpt>
<trkpt lat="31.02992733" lon="-6.06850326"><ele></ele><time>2014-6-12T23:45:25Z</time></trkpt>
<trkpt lat="31.02993638" lon="-6.06840863"><ele></ele><time>2014-6-12T23:45:28Z</time></trkpt>
<trkpt lat="31.03005038" lon="-6.06800278"><ele></ele><time>2014-6-12T23:45:31Z</time></trkpt>
<trkpt lat="31.03005440" lon="-6.06791804"><ele></ele><time>2014-6-12T23:45:34Z</time></trkpt>
<trkpt lat="31.02999916" lon="-6.06791535"><ele></ele><time>2014-6-12T23:45:37Z</time></trkpt>
<trkpt lat="31.03000168" lon="-6.06780740"><ele></ele><time>2014-6-12T23:45:40Z</time></trkpt>
<trkpt lat="31.03007041" lon="-6.06741495"><ele></ele><time>2014-6-12T23:45:43Z</time></trkpt>
<trkpt lat="31.03005432" lon="-6.06589548"><ele></ele><time>2014-6-12T23:45:46Z</time></trkpt>
<trkpt lat="31.03001056" lon="-6.06563866"><ele></ele><time>2014-6-12T23:45:49Z</time></trkpt>
<trkpt lat="31.02994954" lon="-6.06562810"><ele></ele><time>2014-6-12T23:45:52Z</time></trkpt>
<trkpt lat="31.02995357" lon="-6.06563087"><ele></ele><time>2014-6-12T23:45:55Z</time></trkpt>
</trkseg></trk></gpx>